In Rescue
 
Open Full Screen Window  High Contrast Mode
November 27, 2020 11:35 PM EST
Weather Information
Wind Direction
  ---
Wind Speed
  00 kt (0 mph)
Wind Gust
  00 kt (0 mph)
Altimeter
29.94 in
Visibility
10 SM
Temperature
06° C
43° F
Dewpoint
04° C
39° F
Humidity
87%
Sky Condition
Overcast @ 5,000 ft
Broken @ 4,400 ft
VFR

METAR KFSO 280435Z AUTO 00000KT 10SM BKN044 OVC050 06/04 A2994 RMK AO2 T00550040

FAA Disclaimer: The data displayed is for advisory purposes only and is not to be used for flight planning or operations.